Muflao — CUGV3 — position and weather

sailwx.info

Track history (hours):
 
Tides and Currents Weather Stations Pressure Air Temp Water Temp Dewpoint Dewpoint Depression Visibility Wind Speed Wind Dir Waves Ship Positions

Muflao

Last reported at 2018-May-07 04:49 UTC. Time now 2018-Jun-24 03:42 UTC.
Position N 39°11' W 010°07'.
Warning: this ship's position is 47 days out of date.

Length 16 m.

Type: Fishing. MMSI: 263401790.

Date/timePositionNaut miles runAvg speedWind from/ knotsBaromVisibWave heightAir tempDewpointWater temp
2018-May-07 04:49N 39°11' W 010°07'2 3.4
2018-May-07 04:20N 39°10' W 010°09'1 0.6
2018-May-07 02:57N 39°09' W 010°09'1 1.3
2018-May-07 02:29N 39°10' W 010°09'1 1.4
2018-May-07 01:55N 39°10' W 010°10'0 0.5
2018-May-07 01:29N 39°10' W 010°09'1 1.1
2018-May-07 00:59N 39°10' W 010°09'0 0.7
2018-May-07 00:30N 39°11' W 010°09'0 0.7
2018-May-07 00:00N 39°11' W 010°09'2 0.1
2018-May-06 09:04N 39°13' W 010°09'0 0.6
2018-May-06 08:58N 39°13' W 010°09'1 0.2
2018-May-06 05:27N 39°14' W 010°09'1 2.9
2018-May-06 04:58N 39°13' W 010°08'2 4.1
2018-May-06 04:26N 39°15' W 010°09'2 4.0
2018-May-06 03:55N 39°17' W 010°08'  
2018-May-03 21:38N 39°07' W 009°32'1 6.7
2018-May-03 21:30N 39°07' W 009°33'3 6.8
2018-May-03 21:00N 39°04' W 009°37'3 6.9
2018-May-03 20:30N 39°02' W 009°40'3 6.7
2018-May-03 20:00N 38°60' W 009°43'3 6.7
2018-May-03 19:29N 38°57' W 009°46'5 0.3
2018-May-03 03:02N 38°53' W 009°50'2 4.6
2018-May-03 02:41N 38°52' W 009°50'1 2.9
2018-May-03 02:24N 38°52' W 009°49'1 3.6
2018-May-03 02:00N 38°50' W 009°49'3 1.6
2018-May-02 23:57N 38°47' W 009°49'1 0.4
2018-May-02 20:48N 38°48' W 009°48'14 0.8
2018-May-02 02:00N 39°02' W 009°48'4 8.4
2018-May-02 01:29N 39°05' W 009°44'4 8.4
2018-May-02 00:58N 39°08' W 009°40'  
Track history (hours):
 
Tides and Currents Weather Stations Pressure Air Temp Water Temp Dewpoint Dewpoint Depression Visibility Wind Speed Wind Dir Waves Ship Positions

Muflao

Last reported at 2018-May-07 04:49 UTC. Time now 2018-Jun-24 03:42 UTC.
Position N 39°11' W 010°07'.
Warning: this ship's position is 47 days out of date.

Length 16 m.

Type: Fishing. MMSI: 263401790.

Date/timePositionNaut miles runAvg speedWind from/ knotsBaromVisibWave heightAir tempDewpointWater temp
2018-May-07 04:49N 39°11' W 010°07'2 3.4
2018-May-07 04:20N 39°10' W 010°09'1 0.6
2018-May-07 02:57N 39°09' W 010°09'1 1.3
2018-May-07 02:29N 39°10' W 010°09'1 1.4
2018-May-07 01:55N 39°10' W 010°10'0 0.5
2018-May-07 01:29N 39°10' W 010°09'1 1.1
2018-May-07 00:59N 39°10' W 010°09'0 0.7
2018-May-07 00:30N 39°11' W 010°09'0 0.7
2018-May-07 00:00N 39°11' W 010°09'2 0.1
2018-May-06 09:04N 39°13' W 010°09'0 0.6
2018-May-06 08:58N 39°13' W 010°09'1 0.2
2018-May-06 05:27N 39°14' W 010°09'1 2.9
2018-May-06 04:58N 39°13' W 010°08'2 4.1
2018-May-06 04:26N 39°15' W 010°09'2 4.0
2018-May-06 03:55N 39°17' W 010°08'  
2018-May-03 21:38N 39°07' W 009°32'1 6.7
2018-May-03 21:30N 39°07' W 009°33'3 6.8
2018-May-03 21:00N 39°04' W 009°37'3 6.9
2018-May-03 20:30N 39°02' W 009°40'3 6.7
2018-May-03 20:00N 38°60' W 009°43'3 6.7
2018-May-03 19:29N 38°57' W 009°46'5 0.3
2018-May-03 03:02N 38°53' W 009°50'2 4.6
2018-May-03 02:41N 38°52' W 009°50'1 2.9
2018-May-03 02:24N 38°52' W 009°49'1 3.6
2018-May-03 02:00N 38°50' W 009°49'3 1.6
2018-May-02 23:57N 38°47' W 009°49'1 0.4
2018-May-02 20:48N 38°48' W 009°48'14 0.8
2018-May-02 02:00N 39°02' W 009°48'4 8.4
2018-May-02 01:29N 39°05' W 009°44'4 8.4
2018-May-02 00:58N 39°08' W 009°40'  

Dump ship's entire track history